Bodega Marine Reserve, California Weather observations

Data are for 10 minute period ending at time listed.
 Day   Time   Solar   Ave.   Ave.  Ave.  Vector  Max.   Baro.   Total    
  of    of     Rad.   Air    Rel.  Wind   Wind   Wind  Press.  Precip.   
Year   Day            Temp.  Hum.  Speed  Dir.   Gust                    
2017   (PST)  Kw/m2    F      %     mph   deg.    mph    mb.     in.     
-------------------------------------------------------------------------
 293    9:10   0.00   14.1     0    6.1   134     8.1   1016.3    0.00 
 293    9:20   0.00   14.7     0    6.5   143     9.1   1016.3    0.00 
 293    9:30   0.00   15.1     0    6.1   163     9.3   1016.3    0.00 
 293    9:40   0.00   16.1     0    5.9   191     9.1   1016.3    0.00 
 293    9:50   0.00   17.5     0    5.7   216     8.1   1016.6    0.00 
 293   10:00   0.00   19.1     0    5.4   243     7.5   1016.9    0.00 
 293   10:10   0.00   21.1     0    5.8   276     7.7   1016.9    0.00 
 293   10:20   0.00   23.1     0    5.7   279     8.0   1017.3    0.00 
 293   10:30   0.00   25.5     0    5.9   277     7.7   1017.3    0.00 
 293   10:40   0.00   26.9     0    5.1   255     7.1   1017.3    0.00 
 293   10:50   0.00   28.5     0    6.1   213     9.9   1017.6    0.00 
 293   11:00   0.00   28.8     0    8.3   203    12.7   1017.6    0.00 
 293   11:10   0.00   28.8     0    7.2   242    11.0   1017.6    0.00 
 293   11:20   0.00   30.6     0    7.9   278    10.7   1017.6    0.00 
 293   11:30   0.00   31.9     0    8.0   280    10.2   1017.3    0.00 
 293   11:40   0.00   33.4     0    7.6   260     9.8   1017.6    0.00 
 293   11:50   0.00   34.8     0    6.9   274     9.9   1017.6    0.00 
 293   12:00   0.00   36.0     0    6.9   274     9.2   1017.6    0.00 
 293   12:10   0.00   37.2     0    6.9   251    11.2   1017.6    0.00 
 293   12:20   0.00   38.0     0    8.6   241    11.2   1018.3    0.00 
 293   12:30   0.00   38.7     0    8.2   271    11.7   1018.3    0.00 
 293   12:40   0.00   39.2     0    8.3   279    11.2   1018.0    0.00 
 293   12:50   0.00   39.5     0    9.0   270    12.1   1018.0    0.00 
 293   13:00   0.00   40.0     0    7.9   284    11.0   1017.6    0.00 
 293   13:10   0.00   40.0     0    8.4   284    10.7   1017.6    0.00 
 293   13:20   0.00   40.2     0    8.1   278    10.4   1017.6    0.00 
 293   13:30   0.00   40.8     0    8.6   285    11.5   1017.3    0.00 
 293   13:40   0.00   41.5     0    9.1   278    12.1   1017.3    0.00 
 293   13:50   0.00   41.7    46    9.4   287    12.2   1017.3    0.00 
 293   14:00   0.00   41.9    94    9.7   287    12.6   1017.3    0.00 
 293   14:10   0.00   42.3   100   10.3   276    13.6   1017.3    0.00 
 293   14:20   0.00   43.0   100   10.2   276    14.5   1017.6    0.00 
 293   14:30   0.00   43.0   100   10.1   278    13.8   1017.6    0.00 
 293   14:40   0.00   42.7   100    9.1   285    12.3   1018.0    0.00 
 293   14:50   0.00   42.6   100   10.4   285    14.2   1018.0    0.00 
 293   15:00   0.00   42.6   100   11.2   283    14.8   1018.0    0.00 
 293   15:10   0.00   43.1   100   11.3   283    15.9   1018.0    0.00 
 293   15:20   0.00   43.6   100   10.7   282    14.3   1018.0    0.00 
 293   15:30   0.00   43.9    98   10.1   286    14.0   1018.0    0.00 
 293   15:40   0.00   43.6    96    9.6   284    14.0   1018.0    0.00 
 293   15:50   0.00   43.5    95    9.6   291    12.9   1018.0    0.00 
 293   16:00   0.00   43.4    96    8.8   297    12.7   1018.3    0.00 
 293   16:10   0.00   43.2    95    8.9   316    13.3   1018.0    0.00 
 293   16:20   0.00   42.7    93    9.8   310    16.0   1017.6    0.00 
 293   16:30   0.00   42.4    92    9.9   315    14.8   1017.6    0.00 
 293   16:40   0.00   42.1    92    8.4   312    11.7   1017.6    0.00 
 293   16:50   0.00   41.8    92    7.6   316    11.9   1017.3    0.00 
 293   17:00   0.00   41.3    94    6.4   305     8.6   1017.6    0.00 
 293   17:10   0.00   40.5    96    6.4   303     8.2   1017.6    0.00 
 293   17:20   0.00   39.8    97    6.9   308    10.0   1017.3    0.00 
 293   17:30   0.00   39.2    98    7.0   310     9.5   1017.3    0.00 
 293   17:40   0.00   38.6    99    7.3   302     9.7   1017.3    0.00 
 293   17:50   0.00   38.3   100    8.6   294    12.6   1017.3    0.00 
 293   18:00   0.00   37.7   100    8.5   302    11.8   1017.3    0.00 
 293   18:10   100.00  99999.0   99999  99999.0   99999   99999.0   99999.0   99999.00 
 293   18:20   100.00  99999.0   99999  99999.0   99999   99999.0   99999.0   99999.00 
 293   18:30   100.00  99999.0   99999  99999.0   99999   99999.0   99999.0   99999.00 
 293   18:40   100.00  99999.0   99999  99999.0   99999   99999.0   99999.0   99999.00 
 293   18:50   100.00  99999.0   99999  99999.0   99999   99999.0   99999.0   99999.00 
 293   19:00   100.00  99999.0   99999  99999.0   99999   99999.0   99999.0   99999.00 
 293   19:10   0.00   35.0     2    9.5   324    13.0   1018.0    0.00 
 293   19:20   0.00   34.5     1    9.5   336    13.0   1018.0    0.00 
 293   19:30   0.00   34.0     1   12.5   303    17.1   1018.0    0.00 
 293   19:40   0.00   33.6     1   13.0   311    17.4   1017.6    0.00 
 293   19:50   0.00   33.2     1   10.3   315    16.2   1017.6    0.00 
 293   20:00   0.00   32.9     1    9.4   300    12.5   1018.3    0.00 
 293   20:10   0.00   32.5     1   11.5   315    14.2   1018.0    0.00 
 293   20:20   0.00   32.1     1    8.0   305    12.8   1018.3    0.00 
 293   20:30   0.00   31.8     1    8.3   313    11.4   1018.3    0.00 
 293   20:40   0.00   31.5     1    9.9   309    14.2   1018.3    0.00 
 293   20:50   0.00   31.1     1    9.3   308    13.7   1018.6    0.00 
 293   21:00   0.00   30.7     1   11.8   302    16.3   1018.3    0.00 
 293   21:10   0.00   30.2     1   12.8   293    18.0   1018.6    0.00 
 293   21:20   0.00   29.7     0   12.6   300    16.4   1018.6    0.00 
 293   21:30   0.00   29.1     0   12.6   293    16.7   1018.6    0.00 
 293   21:40   0.00   28.6     0   14.0   296    18.3   1018.6    0.00 
 293   21:50   0.00   28.1     0   11.9   302    14.8   1019.0    0.00 
 293   22:00   0.00   27.8     0   11.9   303    15.8   1019.0    0.00 
 293   22:10   100.00  99999.0   99999  99999.0   99999   99999.0   99999.0   99999.00 
 293   22:20   100.00  99999.0   99999  99999.0   99999   99999.0   99999.0   99999.00 
 293   22:30   100.00  99999.0   99999  99999.0   99999   99999.0   99999.0   99999.00 
 293   22:40   100.00  99999.0   99999  99999.0   99999   99999.0   99999.0   99999.00 
 293   22:50   100.00  99999.0   99999  99999.0   99999   99999.0   99999.0   99999.00 
 293   23:00   100.00  99999.0   99999  99999.0   99999   99999.0   99999.0   99999.00 
 293   23:10   0.00   29.5     0    8.6   322    13.4   1019.3    0.00 
 293   23:20   0.00   30.4     0    6.3   321     8.9   1019.3    0.00 
 293   23:30   0.00   31.0     0    6.0   314     8.7   1019.0    0.00 
 293   23:40   0.00   31.0     0    6.1   308     8.0   1019.0    0.00 
 293   23:50   0.00   31.1     0    5.1   322     7.5   1019.0    0.00 
 294    0:00   0.00   31.1     0    3.2   336     4.8   1019.0    0.00 
 294    0:10   0.00   31.4     0    5.0   296     6.9   1018.6    0.00 
 294    0:20   0.00   31.7     0    5.1   299     6.3   1018.6    0.00 
 294    0:30   0.00   31.7    45    4.1   307     5.3   1019.0    0.00 
 294    0:40   0.00   31.5   100    1.9    20     4.7   1019.0    0.00 
 294    0:50   0.00   31.9   100    2.4   297     4.3   1019.0    0.00 
 294    1:00   0.00   31.5   100    2.6   328     4.1   1019.3    0.00 
 294    1:10   0.00   31.7   100    0.6   344     2.0   1019.0    0.00 
 294    1:20   0.00   31.9   100    2.7   320     4.2   1019.0    0.00 
 294    1:30   0.00   32.2   100    3.0   297     3.7   1019.0    0.00 
 294    1:40   0.00   32.0   100    2.6   299     4.0   1019.0    0.00 
 294    1:50   0.00   31.4   100    1.1   116     3.5   1019.0    0.00 
 294    2:00   0.00   31.7   100    1.0   288     2.2   1019.3    0.00 
 294    2:10   0.00   30.9   100    1.9   341     2.6   1019.3    0.00 
 294    2:20   0.00   31.8   100    1.9   316     2.8   1019.0    0.00 
 294    2:30   0.00   30.6   100    1.2   342     2.4   1019.0    0.00 
 294    2:40   0.00   31.1   100    0.0     0     0.0   1019.0    0.00 
 294    2:50   0.00   30.8   100    1.5   134     2.9   1019.3    0.00 
 294    3:00   0.00   30.7   100    2.3   132     3.0   1019.3    0.00 
 294    3:10   0.00   30.7   100    2.2   137     3.0   1019.3    0.00 
 294    3:20   0.00   30.4   100    1.2   108     2.6   1019.3    0.00 
 294    3:30   0.00   30.3   100    1.2   105     1.9   1019.3    0.00 
 294    3:40   0.00   30.1   100    1.9   102     2.8   1019.3    0.00 
 294    3:50   0.00   30.0   100    1.4   124     2.0   1019.3    0.00 
 294    4:00   0.00   29.8   100    1.3   116     2.3   1019.6    0.00 
 294    4:10   100.00  99999.0   99999  99999.0   99999   99999.0   99999.0   99999.00 
 294    4:20   100.00  99999.0   99999  99999.0   99999   99999.0   99999.0   99999.00 
 294    4:30   100.00  99999.0   99999  99999.0   99999   99999.0   99999.0   99999.00 
 294    4:40   100.00  99999.0   99999  99999.0   99999   99999.0   99999.0   99999.00 
 294    4:50   100.00  99999.0   99999  99999.0   99999   99999.0   99999.0   99999.00 
 294    5:00   100.00  99999.0   99999  99999.0   99999   99999.0   99999.0   99999.00 
 294    5:10   100.00  99999.0   99999  99999.0   99999   99999.0   99999.0   99999.00 
 294    5:20   100.00  99999.0   99999  99999.0   99999   99999.0   99999.0   99999.00 
 294    5:30   100.00  99999.0   99999  99999.0   99999   99999.0   99999.0   99999.00 
 294    5:40   100.00  99999.0   99999  99999.0   99999   99999.0   99999.0   99999.00 
 294    5:50   100.00  99999.0   99999  99999.0   99999   99999.0   99999.0   99999.00 
 294    6:00   100.00  99999.0   99999  99999.0   99999   99999.0   99999.0   99999.00 
 294    6:10   0.00   28.9   100    1.8   141     2.4   1021.0    0.00 
 294    6:20   0.00   28.9   100    2.8   132     4.1   1020.7    0.00 
 294    6:30   0.00   28.9   100    3.6   136     4.7   1020.7    0.00 
 294    6:40   0.00   28.9   100    3.0   136     4.5   1020.7    0.00 
 294    6:50   0.00   29.1   100    3.1   152     4.2   1020.7    0.00 
 294    7:00   0.00   29.8    83    3.6   153     5.0   1020.7    0.00 
 294    7:10   0.00   30.8     2    4.1   158     5.2   1021.0    0.00 
 294    7:20   0.00   32.0    43    4.5   152     5.7   1021.0    0.00 
 294    7:30   0.00   33.4   100    4.7   146     5.9   1021.0    0.00 
 294    7:40   0.00   35.1   100    4.1   142     5.3   1021.0    0.00 
 294    7:50   0.00   36.6    97    4.6   142     5.8   1021.0    0.00 
 294    8:00   0.00   38.1    90    3.9   132     5.7   1021.3    0.00 
 294    8:10   0.00   39.8    84    3.4   131     4.5   1021.3    0.00 
 294    8:20   0.00   41.4    79    3.4   144     4.5   1021.3    0.00 
 294    8:30   0.00   42.7    76    2.9   145     3.8   1021.7    0.00 
 294    8:40   0.00   44.4    72    2.0   144     2.8   1021.7    0.00 
 294    8:50   0.00   46.1    65    1.6   122     2.6   1022.0    0.00 
 294    9:00   0.00   47.5    64    2.7   138     4.2   1022.4    0.00 

Return to Bodega Marine Reserve graphs page.


Western Regional Climate Center,wrcc@dri.edu